Time;durP1;ratioP1;P1;durP2;ratioP2;P2;SDS_P1;SDS_P2;PMS_P1;PMS_P2;Temp;Humidity;BMP_temperature;BMP_pressure;BME280_temperature;BME280_humidity;BME280_pressure;Samples;Min_cycle;Max_cycle;Signal;HPM_P1;HPM_P2
2022/04/12 00:00:14;;;;;;;18.65;7.05;;;7.70;99.90;;;;;;4985041;28;20030;-63
2022/04/12 00:02:40;;;;;;;15.77;6.18;;;7.70;99.90;;;;;;4990930;28;20029;-63
2022/04/12 00:05:06;;;;;;;14.52;6.07;;;7.70;99.90;;;;;;4987562;28;20049;-63
2022/04/12 00:07:31;;;;;;;12.70;5.70;;;7.70;99.90;;;;;;4991258;28;20042;-63
2022/04/12 00:09:57;;;;;;;13.10;5.50;;;7.60;99.90;;;;;;4987773;28;20363;-63
2022/04/12 00:12:23;;;;;;;15.13;6.40;;;7.60;99.90;;;;;;4989440;28;20185;-63
2022/04/12 00:14:49;;;;;;;17.85;6.07;;;7.50;99.90;;;;;;4988304;28;20023;-63
2022/04/12 00:19:59;;;;;;;14.88;5.97;;;7.60;99.90;;;;;;4983657;28;20140;-63
2022/04/12 00:22:25;;;;;;;15.27;6.43;;;7.60;99.90;;;;;;4990039;28;20748;-62
2022/04/12 00:24:51;;;;;;;13.07;5.95;;;7.60;99.90;;;;;;4987839;28;20113;-63
2022/04/12 00:27:16;;;;;;;12.50;5.90;;;7.60;99.90;;;;;;4987220;28;20129;-63
2022/04/12 00:29:42;;;;;;;16.40;7.03;;;7.70;99.90;;;;;;4984908;28;20101;-63
2022/04/12 00:32:08;;;;;;;14.63;6.47;;;7.70;99.90;;;;;;4987066;28;20181;-63
2022/04/12 00:34:33;;;;;;;14.98;6.53;;;7.70;99.90;;;;;;4989835;28;20105;-63
2022/04/12 00:36:59;;;;;;;14.38;5.80;;;7.70;99.90;;;;;;4986954;28;20129;-63
2022/04/12 00:39:25;;;;;;;14.23;6.53;;;7.70;99.90;;;;;;4988246;28;20032;-63
2022/04/12 00:41:50;;;;;;;11.40;5.60;;;7.70;99.90;;;;;;4988881;28;20574;-63
2022/04/12 00:44:16;;;;;;;15.18;6.53;;;7.70;99.90;;;;;;4977888;28;20129;-62
2022/04/12 00:46:41;;;;;;;13.88;6.07;;;7.60;99.90;;;;;;4987953;28;20235;-63
2022/04/12 00:49:07;;;;;;;12.38;5.78;;;7.60;99.90;;;;;;4983369;28;20037;-63
2022/04/12 00:51:33;;;;;;;13.85;6.00;;;7.60;99.90;;;;;;4986632;28;20032;-63
2022/04/12 00:54:00;;;;;;;14.43;6.20;;;7.60;99.90;;;;;;4987756;28;20030;-65
2022/04/12 00:56:26;;;;;;;16.67;6.32;;;7.60;99.90;;;;;;4987948;28;20030;-63
2022/04/12 00:58:52;;;;;;;14.23;5.72;;;7.60;99.90;;;;;;4987248;28;20057;-63
2022/04/12 01:01:17;;;;;;;12.90;5.38;;;7.50;99.90;;;;;;4988013;28;20026;-63
2022/04/12 01:03:43;;;;;;;12.15;5.85;;;7.50;99.90;;;;;;4987449;28;20467;-64
2022/04/12 01:06:09;;;;;;;13.93;5.93;;;7.40;99.90;;;;;;4987837;28;20035;-63
2022/04/12 01:08:35;;;;;;;12.95;5.70;;;7.40;99.90;;;;;;4987713;28;20036;-63
2022/04/12 01:11:07;;;;;;;16.13;6.55;;;7.30;99.90;;;;;;4988973;28;20045;-63
2022/04/12 01:13:33;;;;;;;14.48;6.00;;;7.30;99.90;;;;;;4986985;28;20082;-63
2022/04/12 01:15:59;;;;;;;13.43;6.10;;;7.30;99.90;;;;;;4985939;28;20486;-63
2022/04/12 01:18:25;;;;;;;13.77;6.13;;;7.30;99.90;;;;;;4986990;28;20038;-63
2022/04/12 01:20:51;;;;;;;12.40;5.90;;;7.30;99.90;;;;;;4985966;28;20030;-64
2022/04/12 01:23:24;;;;;;;14.38;5.80;;;7.20;99.90;;;;;;4986328;28;20591;-64
2022/04/12 01:25:50;;;;;;;17.58;6.20;;;7.20;99.90;;;;;;4982125;28;20027;-63
2022/04/12 01:28:16;;;;;;;13.25;6.10;;;7.10;99.90;;;;;;4987224;28;20027;-63
2022/04/12 01:30:41;;;;;;;13.73;6.00;;;7.10;99.90;;;;;;4988166;28;20045;-63
2022/04/12 01:33:07;;;;;;;12.30;5.80;;;7.10;99.90;;;;;;4987319;28;20110;-63
2022/04/12 01:35:33;;;;;;;12.77;5.57;;;7.00;99.90;;;;;;4988368;28;20026;-63
2022/04/12 01:38:00;;;;;;;11.00;5.38;;;7.00;99.90;;;;;;4985427;28;20559;-63
2022/04/12 01:40:25;;;;;;;14.00;6.13;;;7.00;99.90;;;;;;4988260;28;20021;-63
2022/04/12 01:42:52;;;;;;;14.85;6.22;;;6.60;99.90;;;;;;4986018;28;20101;-63
2022/04/12 01:45:20;;;;;;;14.80;6.28;;;6.50;99.90;;;;;;4984687;28;20054;-63
2022/04/12 01:47:46;;;;;;;13.57;6.88;;;6.40;99.90;;;;;;4987097;28;20638;-63
2022/04/12 01:50:12;;;;;;;19.30;6.32;;;6.50;99.90;;;;;;4986167;28;20041;-65
2022/04/12 01:52:38;;;;;;;12.57;5.80;;;6.50;99.90;;;;;;4988685;28;20537;-64
2022/04/12 01:55:04;;;;;;;13.70;6.35;;;6.50;99.90;;;;;;4985731;28;20105;-63
2022/04/12 01:57:30;;;;;;;13.30;5.82;;;6.60;99.90;;;;;;4988571;28;20038;-63
2022/04/12 01:59:57;;;;;;;15.40;6.00;;;6.60;99.90;;;;;;4985966;28;20030;-63
2022/04/12 02:02:23;;;;;;;13.57;6.43;;;6.60;99.90;;;;;;4986740;28;20073;-63
2022/04/12 02:04:48;;;;;;;14.25;6.30;;;6.60;99.90;;;;;;4987353;28;20058;-64
2022/04/12 02:07:14;;;;;;;14.68;6.72;;;6.50;99.90;;;;;;4986995;28;20034;-63
2022/04/12 02:09:40;;;;;;;10.43;6.07;;;6.20;99.90;;;;;;4986850;28;20422;-63
2022/04/12 02:12:06;;;;;;;14.75;6.65;;;5.70;99.90;;;;;;4986891;28;20065;-63
2022/04/12 02:14:32;;;;;;;13.82;6.53;;;5.40;99.90;;;;;;4988074;28;20041;-64
2022/04/12 02:16:57;;;;;;;17.23;6.95;;;5.30;99.90;;;;;;4988548;28;20117;-64
2022/04/12 02:19:23;;;;;;;15.30;6.25;;;5.20;99.90;;;;;;4984963;28;20030;-63
2022/04/12 02:21:49;;;;;;;15.23;6.38;;;4.80;99.90;;;;;;4992374;28;20026;-64
2022/04/12 02:24:15;;;;;;;11.73;5.90;;;4.70;99.90;;;;;;4992562;28;20036;-63
2022/04/12 02:26:40;;;;;;;15.55;6.70;;;4.80;99.90;;;;;;4992109;28;20081;-63
2022/04/12 02:29:09;;;;;;;13.48;6.38;;;4.80;99.90;;;;;;4986276;28;20117;-63
2022/04/12 02:31:35;;;;;;;12.05;6.43;;;4.80;99.90;;;;;;4991279;28;20030;-63
2022/04/12 02:34:01;;;;;;;15.32;6.80;;;5.10;99.90;;;;;;4990577;28;20050;-64
2022/04/12 02:36:26;;;;;;;16.58;6.80;;;5.40;99.90;;;;;;4991020;28;20378;-63
2022/04/12 02:38:52;;;;;;;13.35;6.80;;;5.70;99.90;;;;;;4991856;28;20041;-64
2022/04/12 02:41:18;;;;;;;13.15;6.47;;;5.80;99.90;;;;;;4990282;28;20030;-63
2022/04/12 02:43:43;;;;;;;14.32;6.43;;;5.90;99.90;;;;;;4988609;28;20049;-63
2022/04/12 02:46:09;;;;;;;14.40;6.68;;;6.00;99.90;;;;;;4987776;28;20105;-63
2022/04/12 02:48:35;;;;;;;13.32;6.65;;;6.10;99.90;;;;;;4992460;28;20034;-63
2022/04/12 02:51:01;;;;;;;12.70;6.72;;;6.20;99.90;;;;;;4990072;28;20145;-63
2022/04/12 02:53:27;;;;;;;14.32;6.68;;;6.20;99.90;;;;;;4988028;28;20081;-64
2022/04/12 02:55:52;;;;;;;12.77;5.90;;;6.20;99.90;;;;;;4990997;28;20456;-64
2022/04/12 02:58:19;;;;;;;13.88;6.13;;;6.20;99.90;;;;;;4990276;28;20036;-63
2022/04/12 03:00:45;;;;;;;17.10;7.00;;;6.20;99.90;;;;;;4990565;28;20034;-63
2022/04/12 03:03:10;;;;;;;16.75;6.20;;;6.20;99.90;;;;;;4986437;28;20030;-63
2022/04/12 03:05:36;;;;;;;15.60;6.47;;;6.20;99.90;;;;;;4982757;28;20440;-64
2022/04/12 03:08:02;;;;;;;16.13;6.70;;;6.20;99.90;;;;;;4991832;28;20038;-63
2022/04/12 03:10:27;;;;;;;14.32;6.30;;;6.20;99.90;;;;;;4989594;28;20042;-63
2022/04/12 03:12:53;;;;;;;10.57;5.25;;;6.20;99.90;;;;;;4989089;28;20022;-64
2022/04/12 03:15:19;;;;;;;13.68;5.50;;;6.10;99.90;;;;;;4970076;28;20065;-63
2022/04/12 03:17:45;;;;;;;11.00;6.00;;;5.70;99.90;;;;;;4991210;28;20447;-63
2022/04/12 03:20:10;;;;;;;14.32;6.43;;;5.50;99.90;;;;;;4990696;28;20041;-63
2022/04/12 03:22:36;;;;;;;14.68;6.43;;;5.00;99.90;;;;;;4988815;28;20371;-63
2022/04/12 03:25:02;;;;;;;14.45;6.65;;;4.90;99.90;;;;;;4986227;28;20034;-63
2022/04/12 03:27:28;;;;;;;14.82;6.95;;;5.00;99.90;;;;;;4990125;28;20057;-63
2022/04/12 03:29:54;;;;;;;13.95;5.82;;;4.90;99.90;;;;;;4989465;28;20041;-65
2022/04/12 03:32:19;;;;;;;12.55;5.88;;;4.80;99.90;;;;;;4987943;28;20387;-64
2022/04/12 03:34:46;;;;;;;16.35;7.50;;;4.60;99.90;;;;;;4985598;28;20066;-63
2022/04/12 03:37:13;;;;;;;13.73;6.05;;;4.60;99.90;;;;;;4989584;28;20030;-63
2022/04/12 03:39:38;;;;;;;13.73;6.50;;;4.80;99.90;;;;;;4988875;28;20113;-63
2022/04/12 03:42:04;;;;;;;15.48;6.60;;;4.50;99.90;;;;;;4990261;28;20267;-63
2022/04/12 03:44:31;;;;;;;14.93;6.80;;;4.20;99.90;;;;;;4989105;28;20069;-63
2022/04/12 03:46:57;;;;;;;15.27;6.78;;;4.30;99.90;;;;;;4989579;28;20054;-64
2022/04/12 03:49:22;;;;;;;14.55;6.38;;;4.30;99.90;;;;;;4986211;28;20038;-63
2022/04/12 03:51:48;;;;;;;13.52;6.50;;;4.50;99.90;;;;;;4990339;28;20045;-64
2022/04/12 03:54:13;;;;;;;14.93;6.68;;;4.70;99.90;;;;;;4987139;28;20828;-64
2022/04/12 03:56:41;;;;;;;13.60;6.47;;;4.90;99.90;;;;;;4988773;28;20026;-68
2022/04/12 03:59:07;;;;;;;13.75;6.65;;;4.90;99.90;;;;;;4979759;28;20446;-64
2022/04/12 04:01:32;;;;;;;15.70;6.38;;;4.90;99.90;;;;;;4989934;28;20062;-66
2022/04/12 04:04:01;;;;;;;14.27;6.72;;;5.10;99.90;;;;;;4984786;28;20428;-66
2022/04/12 04:06:27;;;;;;;14.30;6.72;;;4.70;99.90;;;;;;4985193;28;20089;-65
2022/04/12 04:08:53;;;;;;;13.23;6.65;;;4.30;99.90;;;;;;4981198;28;20034;-65
2022/04/12 04:11:18;;;;;;;17.38;7.05;;;4.10;99.90;;;;;;4982574;28;20088;-69
2022/04/12 04:13:45;;;;;;;18.27;8.05;;;3.80;99.90;;;;;;4987938;28;20038;-70
2022/04/12 04:16:11;;;;;;;16.90;7.43;;;3.70;99.90;;;;;;4981553;28;20651;-65
2022/04/12 04:18:37;;;;;;;14.85;7.57;;;3.70;99.90;;;;;;4987568;28;20046;-64
2022/04/12 04:21:04;;;;;;;21.83;7.50;;;3.70;99.90;;;;;;4982151;28;20037;-63
2022/04/12 04:23:29;;;;;;;14.23;7.25;;;3.70;99.90;;;;;;4990726;28;20066;-63
2022/04/12 04:25:55;;;;;;;16.20;7.90;;;3.60;99.90;;;;;;4989759;28;20548;-67
2022/04/12 04:28:21;;;;;;;16.85;7.97;;;3.60;99.90;;;;;;4987674;28;20490;-65
2022/04/12 04:30:50;;;;;;;17.80;7.20;;;3.60;99.90;;;;;;4986736;28;20088;-69
2022/04/12 04:33:18;;;;;;;16.40;8.18;;;3.60;99.90;;;;;;4987667;28;20192;-67
2022/04/12 04:35:48;;;;;;;20.30;8.50;;;3.70;99.90;;;;;;4990442;28;20042;-68
2022/04/12 04:38:14;;;;;;;19.77;8.40;;;3.80;99.90;;;;;;4983494;28;20038;-67
2022/04/12 04:40:40;;;;;;;17.05;7.90;;;3.90;99.90;;;;;;4986569;28;20092;-67
2022/04/12 04:43:07;;;;;;;19.88;8.57;;;3.80;99.90;;;;;;4988036;28;20117;-67
2022/04/12 04:45:34;;;;;;;17.40;7.47;;;3.80;99.90;;;;;;4982975;28;20054;-65
2022/04/12 04:48:02;;;;;;;15.90;7.20;;;4.00;99.90;;;;;;4985396;28;20034;-69
2022/04/12 04:50:30;;;;;;;17.63;8.15;;;3.90;99.90;;;;;;4986328;28;20038;-68
2022/04/12 04:52:56;;;;;;;18.08;7.10;;;3.60;99.90;;;;;;4986216;28;20661;-68
2022/04/12 04:55:22;;;;;;;14.63;6.93;;;3.60;99.90;;;;;;4987431;28;20077;-64
2022/04/12 04:57:48;;;;;;;14.68;7.20;;;3.50;99.90;;;;;;4989755;28;20073;-65
2022/04/12 05:00:17;;;;;;;22.33;11.15;;;3.40;99.90;;;;;;4981743;28;20025;-68
2022/04/12 05:02:44;;;;;;;24.42;10.60;;;3.60;99.90;;;;;;4988041;28;20034;-68
2022/04/12 05:05:10;;;;;;;23.45;10.40;;;3.90;99.90;;;;;;4985826;28;20593;-67
2022/04/12 05:07:41;;;;;;;20.05;8.23;;;4.20;99.90;;;;;;4984345;28;20053;-67
2022/04/12 05:10:08;;;;;;;11.80;5.32;;;4.30;99.90;;;;;;4980599;28;20070;-67
2022/04/12 05:12:33;;;;;;;16.70;7.75;;;4.30;99.90;;;;;;4984339;28;20088;-67
2022/04/12 05:14:59;;;;;;;18.85;8.65;;;4.20;99.90;;;;;;4982938;28;20038;-69
2022/04/12 05:17:29;;;;;;;23.33;9.63;;;4.20;99.90;;;;;;4985376;28;20043;-67
2022/04/12 05:19:56;;;;;;;20.95;8.52;;;4.30;99.90;;;;;;4986642;28;20391;-67
2022/04/12 05:22:23;;;;;;;18.85;8.90;;;4.60;99.90;;;;;;4986921;28;20045;-69
2022/04/12 05:24:49;;;;;;;16.95;7.72;;;4.90;99.90;;;;;;4988481;28;20045;-70
2022/04/12 05:27:15;;;;;;;18.40;8.40;;;5.10;99.90;;;;;;4987264;28;20089;-69
2022/04/12 05:29:42;;;;;;;18.60;8.57;;;5.20;99.90;;;;;;4988066;28;20041;-70
2022/04/12 05:32:09;;;;;;;19.70;8.65;;;5.30;99.90;;;;;;4986331;28;20104;-70
2022/04/12 05:34:36;;;;;;;24.02;9.45;;;5.40;99.90;;;;;;4976202;28;20473;-66
2022/04/12 05:37:03;;;;;;;19.25;7.88;;;5.50;99.90;;;;;;4984960;28;20740;-68
2022/04/12 05:39:29;;;;;;;21.02;8.45;;;5.60;99.90;;;;;;4985805;28;20076;-69
2022/04/12 05:41:54;;;;;;;20.63;8.45;;;5.60;99.90;;;;;;4985614;28;20379;-68
2022/04/12 05:44:20;;;;;;;18.08;8.40;;;5.70;99.90;;;;;;4979017;28;20243;-69
2022/04/12 05:46:46;;;;;;;17.15;8.18;;;5.80;99.90;;;;;;4983731;28;20041;-70
2022/04/12 05:49:11;;;;;;;22.70;9.18;;;5.90;99.90;;;;;;4984775;28;20064;-69
2022/04/12 05:51:37;;;;;;;21.05;8.25;;;6.00;99.90;;;;;;4988788;28;20042;-66
2022/04/12 05:54:03;;;;;;;17.85;8.77;;;6.10;99.90;;;;;;4987578;28;20034;-66
2022/04/12 05:56:28;;;;;;;20.13;8.65;;;6.20;99.90;;;;;;4987940;28;20036;-66
2022/04/12 05:58:54;;;;;;;17.25;8.57;;;6.30;99.90;;;;;;4986947;28;20030;-65
2022/04/12 06:01:19;;;;;;;20.80;7.82;;;6.50;99.90;;;;;;4986526;28;20105;-66
2022/04/12 06:03:45;;;;;;;17.05;8.15;;;6.60;99.90;;;;;;4987885;28;20149;-68
2022/04/12 06:06:12;;;;;;;16.58;7.90;;;6.80;99.90;;;;;;4986398;28;20058;-66
2022/04/12 06:08:37;;;;;;;19.13;8.35;;;6.90;99.90;;;;;;4986692;28;20041;-68
2022/04/12 06:11:03;;;;;;;14.40;7.13;;;7.00;99.90;;;;;;4988850;28;20035;-69
2022/04/12 06:13:29;;;;;;;15.68;7.60;;;7.20;99.90;;;;;;4987695;28;20062;-68
2022/04/12 06:15:54;;;;;;;17.38;7.20;;;7.40;99.90;;;;;;4987414;28;20113;-68
2022/04/12 06:18:20;;;;;;;18.00;7.95;;;7.60;99.90;;;;;;4987151;28;20117;-67
2022/04/12 06:20:46;;;;;;;16.48;8.57;;;7.70;99.90;;;;;;4988346;28;20034;-68
2022/04/12 06:23:11;;;;;;;15.18;7.43;;;7.90;99.90;;;;;;4987252;28;20038;-67
2022/04/12 06:25:37;;;;;;;17.45;7.88;;;8.00;99.90;;;;;;4988194;28;20035;-67
2022/04/12 06:28:03;;;;;;;16.05;7.90;;;8.10;99.90;;;;;;4988404;28;20096;-66
2022/04/12 06:30:32;;;;;;;17.13;7.18;;;8.20;99.90;;;;;;4984540;28;20125;-66
2022/04/12 06:32:58;;;;;;;13.90;6.90;;;8.40;99.90;;;;;;4988251;28;20085;-68
2022/04/12 06:35:23;;;;;;;15.20;7.07;;;8.60;99.90;;;;;;4986653;28;20098;-69
2022/04/12 06:37:53;;;;;;;15.23;7.35;;;8.80;99.90;;;;;;4987593;28;20034;-68
2022/04/12 06:40:20;;;;;;;23.05;8.38;;;8.80;99.90;;;;;;4986407;28;20081;-70
2022/04/12 06:42:50;;;;;;;15.20;7.03;;;8.90;99.90;;;;;;4982659;28;20050;-69
2022/04/12 06:45:16;;;;;;;19.67;7.40;;;9.00;99.90;;;;;;4984084;28;20515;-66
2022/04/12 06:47:43;;;;;;;19.52;7.50;;;9.10;99.90;;;;;;4983800;28;20042;-69
2022/04/12 06:50:11;;;;;;;13.23;6.95;;;9.20;99.90;;;;;;4985621;28;20044;-71
2022/04/12 06:52:37;;;;;;;13.52;6.57;;;9.30;99.90;;;;;;4986885;28;20035;-69
2022/04/12 06:55:04;;;;;;;10.82;6.47;;;9.50;99.90;;;;;;4989051;28;20038;-69
2022/04/12 06:57:34;;;;;;;15.43;6.20;;;9.80;99.90;;;;;;4980966;28;20210;-69
2022/04/12 07:00:00;;;;;;;13.40;6.13;;;9.90;99.90;;;;;;4987712;28;20038;-68
2022/04/12 07:02:26;;;;;;;14.40;6.70;;;10.10;99.90;;;;;;4989185;28;20027;-68
2022/04/12 07:04:52;;;;;;;12.27;6.43;;;10.20;99.90;;;;;;4990132;28;20027;-76
2022/04/12 07:07:17;;;;;;;12.43;6.85;;;10.30;99.90;;;;;;4985434;28;20458;-68
2022/04/12 07:09:43;;;;;;;13.07;6.55;;;10.50;99.90;;;;;;4984027;28;20031;-67
2022/04/12 07:12:09;;;;;;;14.57;6.05;;;10.60;99.90;;;;;;4985155;28;20058;-69
2022/04/12 07:14:34;;;;;;;13.60;6.13;;;10.70;99.90;;;;;;4986874;28;20383;-75
2022/04/12 07:17:00;;;;;;;14.93;5.80;;;10.80;99.90;;;;;;4991393;28;20202;-67
2022/04/12 07:19:26;;;;;;;12.35;5.70;;;10.90;99.90;;;;;;4987641;28;20038;-68
2022/04/12 07:21:52;;;;;;;11.63;5.90;;;11.10;99.90;;;;;;4987859;28;20058;-70
2022/04/12 07:24:18;;;;;;;11.00;5.25;;;11.20;99.90;;;;;;4976061;28;20038;-68
2022/04/12 07:26:44;;;;;;;14.10;5.35;;;11.30;99.90;;;;;;4985577;28;20033;-67
2022/04/12 07:29:10;;;;;;;14.93;6.43;;;11.50;99.90;;;;;;4989347;28;20034;-70
2022/04/12 07:31:36;;;;;;;14.75;6.60;;;11.60;99.90;;;;;;4989774;28;20730;-68
2022/04/12 07:34:02;;;;;;;13.32;5.65;;;11.70;99.90;;;;;;4987000;28;20061;-69
2022/04/12 07:36:27;;;;;;;10.25;4.85;;;11.90;99.90;;;;;;4987575;28;20466;-69
2022/04/12 07:38:53;;;;;;;10.07;5.45;;;12.00;99.90;;;;;;4987691;28;20026;-68
2022/04/12 07:41:19;;;;;;;11.85;5.22;;;12.20;99.90;;;;;;4989928;28;20513;-69
2022/04/12 07:43:46;;;;;;;13.38;5.82;;;12.30;99.90;;;;;;4990773;28;20186;-69
2022/04/12 07:46:13;;;;;;;9.50;5.10;;;12.40;99.90;;;;;;4987724;28;20040;-67
2022/04/12 07:48:43;;;;;;;11.15;4.80;;;12.50;99.90;;;;;;4986616;28;20042;-69
2022/04/12 07:51:09;;;;;;;8.32;4.60;;;12.60;99.90;;;;;;4989733;28;20070;-68
2022/04/12 07:53:36;;;;;;;8.77;4.53;;;12.70;99.90;;;;;;4989543;28;20030;-69
2022/04/12 07:56:02;;;;;;;8.02;4.40;;;12.90;99.90;;;;;;4989693;28;20489;-69
2022/04/12 07:58:28;;;;;;;8.60;3.70;;;13.20;99.90;;;;;;4985502;28;20041;-68
2022/04/12 08:00:53;;;;;;;6.40;3.33;;;13.40;99.90;;;;;;4991069;28;20451;-71
2022/04/12 08:03:22;;;;;;;7.82;4.10;;;13.50;99.90;;;;;;4989572;28;20052;-69
2022/04/12 08:05:48;;;;;;;7.57;3.42;;;13.70;99.90;;;;;;4991000;28;20088;-69
2022/04/12 08:08:14;;;;;;;11.93;3.60;;;13.90;99.90;;;;;;4990368;28;20490;-70
2022/04/12 08:10:40;;;;;;;6.93;3.30;;;14.10;99.90;;;;;;4989639;28;20052;-71
2022/04/12 08:13:06;;;;;;;6.20;3.08;;;14.20;99.90;;;;;;4989257;28;20717;-67
2022/04/12 08:15:32;;;;;;;5.55;2.88;;;14.40;99.90;;;;;;4989166;28;20487;-69
2022/04/12 08:17:57;;;;;;;6.35;3.20;;;14.50;99.80;;;;;;4990411;28;20395;-69
2022/04/12 08:20:23;;;;;;;4.95;2.80;;;14.70;99.90;;;;;;4988025;28;20459;-70
2022/04/12 08:22:49;;;;;;;6.35;3.10;;;14.80;97.60;;;;;;4990031;28;20038;-73
2022/04/12 08:25:15;;;;;;;8.68;3.40;;;14.90;98.40;;;;;;4982668;28;20032;-72
2022/04/12 08:27:41;;;;;;;7.28;2.95;;;15.00;95.80;;;;;;4990019;28;20117;-67
2022/04/12 08:30:08;;;;;;;5.78;3.00;;;15.00;95.50;;;;;;4988049;28;20042;-70
2022/04/12 08:32:34;;;;;;;7.15;3.03;;;15.10;94.40;;;;;;4989900;28;20033;-69
2022/04/12 08:35:00;;;;;;;6.72;2.95;;;15.30;94.10;;;;;;4989401;28;20026;-71
2022/04/12 08:37:26;;;;;;;4.55;2.65;;;15.40;92.60;;;;;;4989522;28;20026;-71
2022/04/12 08:39:52;;;;;;;6.70;2.75;;;15.40;92.00;;;;;;4989546;28;20034;-72
2022/04/12 08:42:18;;;;;;;6.50;2.80;;;15.50;91.90;;;;;;4986773;28;20061;-70
2022/04/12 08:44:46;;;;;;;4.47;2.60;;;15.60;92.30;;;;;;4989724;28;20049;-71
2022/04/12 08:47:15;;;;;;;6.10;2.40;;;15.80;93.40;;;;;;4978935;28;20062;-70
2022/04/12 08:49:41;;;;;;;10.93;2.90;;;16.00;91.90;;;;;;4988911;28;20077;-66
2022/04/12 08:52:12;;;;;;;5.22;2.83;;;16.10;90.50;;;;;;4989468;28;20117;-67
2022/04/12 08:54:43;;;;;;;4.43;2.40;;;16.10;86.80;;;;;;4987365;28;20030;-70
2022/04/12 08:57:10;;;;;;;5.07;2.70;;;16.20;89.10;;;;;;4986915;28;20451;-68
2022/04/12 08:59:37;;;;;;;6.25;2.67;;;16.40;85.90;;;;;;4988258;28;20216;-68
2022/04/12 09:02:03;;;;;;;3.97;2.22;;;16.40;85.20;;;;;;4989085;28;20391;-70
2022/04/12 09:04:29;;;;;;;4.30;2.60;;;16.60;89.00;;;;;;4987626;28;20495;-70
2022/04/12 09:06:57;;;;;;;4.30;2.55;;;16.70;84.30;;;;;;4985490;28;20041;-69
2022/04/12 09:09:25;;;;;;;4.35;2.42;;;16.80;84.30;;;;;;4989072;28;20034;-70
2022/04/12 09:11:57;;;;;;;9.65;2.88;;;16.80;84.80;;;;;;4988151;28;20109;-69
2022/04/12 09:14:25;;;;;;;12.65;5.15;;;16.90;81.60;;;;;;4989340;28;20109;-69
2022/04/12 09:16:54;;;;;;;4.88;2.78;;;16.80;80.80;;;;;;4987234;28;20168;-70
2022/04/12 09:19:39;;;;;;;9.77;2.70;;;16.70;79.50;;;;;;4988904;28;20045;-70
2022/04/12 09:22:18;;;;;;;5.85;2.42;;;16.90;82.40;;;;;;4988372;28;20038;-69
2022/04/12 09:24:51;;;;;;;8.43;2.80;;;17.00;82.70;;;;;;4987128;28;20092;-71
2022/04/12 09:27:22;;;;;;;6.40;2.53;;;17.30;78.50;;;;;;4986499;28;20054;-68
2022/04/12 09:29:51;;;;;;;8.85;2.53;;;17.40;83.00;;;;;;4988999;28;20035;-70
2022/04/12 09:32:25;;;;;;;7.05;2.90;;;17.40;80.90;;;;;;4988111;28;20030;-69
2022/04/12 09:34:52;;;;;;;5.53;2.10;;;17.50;78.00;;;;;;4988171;28;20027;-70
2022/04/12 09:37:23;;;;;;;4.93;2.28;;;17.70;78.90;;;;;;4988655;28;20041;-69
2022/04/12 09:40:03;;;;;;;4.18;2.20;;;18.10;80.80;;;;;;4988317;28;20038;-69
2022/04/12 09:42:38;;;;;;;5.63;2.33;;;18.30;73.30;;;;;;4979903;28;20483;-69
2022/04/12 09:45:06;;;;;;;3.40;2.30;;;18.20;69.40;;;;;;4988186;28;20062;-69
2022/04/12 09:47:32;;;;;;;4.13;2.13;;;18.10;67.80;;;;;;4980967;28;20034;-70
2022/04/12 09:50:02;;;;;;;5.85;2.20;;;18.00;65.10;;;;;;4988189;28;20050;-69
2022/04/12 09:52:28;;;;;;;4.05;2.10;;;18.00;69.50;;;;;;4987626;28;20068;-69
2022/04/12 09:54:58;;;;;;;2.90;1.70;;;18.10;62.20;;;;;;4988266;28;20035;-69
2022/04/12 09:57:25;;;;;;;5.25;1.80;;;18.10;60.80;;;;;;4986284;28;20438;-68
2022/04/12 09:59:56;;;;;;;6.20;1.60;;;18.40;64.60;;;;;;4988090;28;20555;-68
2022/04/12 10:02:26;;;;;;;5.43;2.00;;;18.60;59.90;;;;;;4985051;28;20368;-69
2022/04/12 10:04:53;;;;;;;4.72;1.73;;;18.80;59.70;;;;;;4979731;28;20034;-70
2022/04/12 10:07:21;;;;;;;5.18;1.65;;;18.90;58.90;;;;;;4983864;28;20041;-69
2022/04/12 10:09:52;;;;;;;3.08;1.42;;;18.70;57.90;;;;;;4987470;28;20038;-69
2022/04/12 10:12:19;;;;;;;5.13;1.40;;;18.70;57.40;;;;;;4988414;28;20129;-69
2022/04/12 10:14:46;;;;;;;3.38;1.60;;;18.50;57.90;;;;;;4988077;28;20052;-70
2022/04/12 10:17:13;;;;;;;3.75;1.58;;;18.50;57.20;;;;;;4988150;28;20392;-70
2022/04/12 10:19:40;;;;;;;2.30;1.35;;;18.60;59.40;;;;;;4986966;28;20033;-70
2022/04/12 10:22:07;;;;;;;4.07;1.50;;;18.90;58.30;;;;;;4980732;28;20029;-70
2022/04/12 10:24:34;;;;;;;2.25;1.40;;;19.20;59.60;;;;;;4987066;28;20027;-73
2022/04/12 10:27:00;;;;;;;2.05;1.35;;;19.40;58.90;;;;;;4987802;28;20379;-69
2022/04/12 10:29:25;;;;;;;4.03;1.60;;;19.60;57.40;;;;;;4984944;28;20113;-69
2022/04/12 10:32:00;;;;;;;2.78;1.20;;;19.70;56.30;;;;;;4984893;28;20114;-68
2022/04/12 10:34:25;;;;;;;2.90;1.40;;;20.00;58.30;;;;;;4985722;28;20033;-70
2022/04/12 10:37:03;;;;;;;1.92;1.08;;;20.20;53.30;;;;;;4987063;28;20027;-69
2022/04/12 10:39:36;;;;;;;1.52;1.00;;;20.30;51.70;;;;;;4990245;28;20041;-70
2022/04/12 10:42:11;;;;;;;1.58;1.00;;;20.50;51.30;;;;;;4986379;28;20038;-68
2022/04/12 10:44:46;;;;;;;5.30;1.20;;;20.60;49.60;;;;;;4991513;28;20057;-69
2022/04/12 10:47:32;;;;;;;4.63;1.20;;;20.70;50.40;;;;;;4992510;28;20042;-68
2022/04/12 10:50:01;;;;;;;3.15;1.30;;;20.70;50.00;;;;;;4991493;28;20038;-68
2022/04/12 10:52:48;;;;;;;3.35;1.23;;;20.60;52.20;;;;;;4990017;28;20080;-67
2022/04/12 10:55:17;;;;;;;2.60;1.13;;;20.80;50.30;;;;;;4991997;28;20092;-69
2022/04/12 10:57:44;;;;;;;3.08;1.48;;;21.00;49.40;;;;;;4989965;28;20022;-68
2022/04/12 11:00:14;;;;;;;3.80;1.15;;;21.10;49.20;;;;;;4989196;28;20039;-69
2022/04/12 11:02:43;;;;;;;1.77;0.98;;;21.00;50.30;;;;;;4985353;28;20033;-67
2022/04/12 11:05:37;;;;;;;3.03;1.33;;;21.00;50.70;;;;;;4989845;28;20033;-67
2022/04/12 11:08:14;;;;;;;2.05;1.15;;;21.10;47.60;;;;;;4987624;28;20085;-68
2022/04/12 11:10:54;;;;;;;2.20;0.90;;;21.00;47.50;;;;;;4990364;28;20034;-71
2022/04/12 11:13:27;;;;;;;2.22;0.90;;;21.10;47.50;;;;;;4990076;28;20034;-66
2022/04/12 11:16:16;;;;;;;2.63;1.05;;;21.20;46.60;;;;;;4990745;28;20138;-67
2022/04/12 11:18:55;;;;;;;2.55;1.20;;;21.30;46.50;;;;;;4988886;28;20057;-67
2022/04/12 11:21:26;;;;;;;1.52;1.00;;;21.20;45.20;;;;;;4986400;28;20069;-68
2022/04/12 11:23:55;;;;;;;3.80;1.15;;;21.10;46.20;;;;;;4989855;28;20033;-64
2022/04/12 11:26:40;;;;;;;14.40;1.00;;;21.10;45.80;;;;;;4990566;28;20030;-66
2022/04/12 11:29:11;;;;;;;3.53;1.42;;;21.20;44.70;;;;;;4988171;28;20046;-65
2022/04/12 11:31:40;;;;;;;;;;;21.60;48.00;;;;;;4987395;28;20030;-67
2022/04/12 11:34:07;;;;;;;2.33;1.00;;;21.70;44.70;;;;;;4989222;28;19992;-66
2022/04/12 11:36:33;;;;;;;5.18;1.00;;;21.60;44.20;;;;;;4984831;28;20037;-67
2022/04/12 11:38:59;;;;;;;2.10;0.90;;;21.70;43.70;;;;;;4987580;28;20095;-66
2022/04/12 11:41:24;;;;;;;2.33;1.05;;;21.80;43.50;;;;;;4989564;28;20034;-65
2022/04/12 11:44:00;;;;;;;2.95;1.02;;;22.00;43.80;;;;;;4989337;28;20129;-67
2022/04/12 11:46:32;;;;;;;2.95;0.88;;;21.70;45.10;;;;;;4988685;28;20027;-65
2022/04/12 11:49:12;;;;;;;3.08;0.90;;;22.00;47.60;;;;;;4985278;28;20061;-64
2022/04/12 11:51:43;;;;;;;1.90;0.80;;;22.10;43.10;;;;;;4989909;28;20059;-66
2022/04/12 11:54:32;;;;;;;2.53;0.93;;;22.20;43.70;;;;;;4991297;28;20088;-65
2022/04/12 11:57:10;;;;;;;3.28;1.00;;;22.30;43.80;;;;;;4988586;28;20510;-66
2022/04/12 11:59:50;;;;;;;1.67;0.80;;;22.30;43.20;;;;;;4988620;28;20035;-66
2022/04/12 12:02:27;;;;;;;1.77;1.10;;;22.60;43.50;;;;;;4990679;28;20125;-66
2022/04/12 12:04:58;;;;;;;1.52;0.93;;;22.70;42.60;;;;;;4988779;28;20134;-64
2022/04/12 12:07:25;;;;;;;3.58;1.13;;;22.80;45.00;;;;;;4990081;28;20046;-66
2022/04/12 12:09:54;;;;;;;2.13;1.10;;;22.90;42.00;;;;;;4983955;28;20034;-65
2022/04/12 12:12:29;;;;;;;7.63;1.00;;;22.80;43.80;;;;;;4988656;28;20483;-64
2022/04/12 12:14:55;;;;;;;1.05;0.70;;;22.60;40.50;;;;;;4991359;28;20027;-64
2022/04/12 12:17:21;;;;;;;4.55;1.30;;;22.50;41.30;;;;;;4989866;28;20049;-66
2022/04/12 12:19:47;;;;;;;1.50;1.00;;;22.30;42.80;;;;;;4990228;28;20097;-65
2022/04/12 12:22:14;;;;;;;3.00;1.00;;;22.40;40.90;;;;;;4990393;28;20037;-66
2022/04/12 12:24:57;;;;;;;2.03;1.15;;;22.30;43.00;;;;;;4990229;28;20030;-65
2022/04/12 12:27:32;;;;;;;5.22;0.90;;;21.90;41.60;;;;;;4990037;28;20583;-66
2022/04/12 12:30:08;;;;;;;2.33;0.80;;;21.80;42.60;;;;;;4989416;28;20030;-65
2022/04/12 12:32:38;;;;;;;1.67;0.80;;;21.80;43.50;;;;;;4989246;28;20042;-65
2022/04/12 12:35:12;;;;;;;1.98;0.90;;;22.10;44.20;;;;;;4984473;28;20490;-65
2022/04/12 12:37:39;;;;;;;2.20;0.82;;;22.20;42.10;;;;;;4988028;28;20105;-67
2022/04/12 12:40:21;;;;;;;3.72;1.20;;;22.10;42.00;;;;;;4989727;28;20030;-67
2022/04/12 12:42:48;;;;;;;1.83;0.88;;;22.10;43.70;;;;;;4983557;28;20038;-66
2022/04/12 12:45:19;;;;;;;4.32;1.20;;;21.90;41.70;;;;;;4986728;28;20565;-67
2022/04/12 12:47:50;;;;;;;1.85;0.93;;;21.80;42.80;;;;;;4987516;28;20383;-65
2022/04/12 12:50:17;;;;;;;3.00;1.17;;;21.70;42.70;;;;;;4986056;28;20034;-67